sensor_id;sensor_type;location;lat;lon;timestamp;pressure;altitude;pressure_sealevel;temperature;humidity
54144;BME280;40050;47.324;18.792;2023-05-23T00:01:54;1000.99;;;19.39;62.67
54144;BME280;40050;47.324;18.792;2023-05-23T00:03:55;1000.61;;;19.12;61.80
54144;BME280;40050;47.324;18.792;2023-05-23T00:05:56;1000.97;;;19.27;61.54
54144;BME280;40050;47.324;18.792;2023-05-23T00:07:57;1000.93;;;19.19;61.90
54144;BME280;40050;47.324;18.792;2023-05-23T00:09:58;1000.88;;;19.13;62.21
54144;BME280;40050;47.324;18.792;2023-05-23T00:11:59;1000.91;;;19.13;62.33
54144;BME280;40050;47.324;18.792;2023-05-23T00:14:00;1000.91;;;19.12;62.37
54144;BME280;40050;47.324;18.792;2023-05-23T00:16:01;1000.90;;;19.10;62.30
54144;BME280;40050;47.324;18.792;2023-05-23T00:18:02;1000.90;;;19.09;62.78
54144;BME280;40050;47.324;18.792;2023-05-23T00:20:03;1000.90;;;19.06;63.21
54144;BME280;40050;47.324;18.792;2023-05-23T00:22:04;1000.89;;;19.03;63.36
54144;BME280;40050;47.324;18.792;2023-05-23T00:24:05;1000.94;;;19.01;63.37
54144;BME280;40050;47.324;18.792;2023-05-23T00:26:07;1000.91;;;18.97;63.44
54144;BME280;40050;47.324;18.792;2023-05-23T00:28:08;1000.92;;;18.97;63.58
54144;BME280;40050;47.324;18.792;2023-05-23T00:30:09;1000.95;;;18.95;63.46
54144;BME280;40050;47.324;18.792;2023-05-23T00:32:10;1000.91;;;18.93;63.47
54144;BME280;40050;47.324;18.792;2023-05-23T00:34:14;1000.90;;;18.94;63.51
54144;BME280;40050;47.324;18.792;2023-05-23T00:36:15;1000.89;;;18.90;63.43
54144;BME280;40050;47.324;18.792;2023-05-23T00:38:16;1000.86;;;18.87;63.36
54144;BME280;40050;47.324;18.792;2023-05-23T00:40:17;1000.85;;;18.84;63.14
54144;BME280;40050;47.324;18.792;2023-05-23T00:42:18;1000.88;;;18.80;63.00
54144;BME280;40050;47.324;18.792;2023-05-23T00:44:19;1000.85;;;18.76;62.98
54144;BME280;40050;47.324;18.792;2023-05-23T00:46:20;1000.84;;;18.70;63.00
54144;BME280;40050;47.324;18.792;2023-05-23T00:48:21;1000.88;;;18.69;62.99
54144;BME280;40050;47.324;18.792;2023-05-23T00:50:22;1000.81;;;18.64;63.08
54144;BME280;40050;47.324;18.792;2023-05-23T00:52:23;1000.84;;;18.61;62.98
54144;BME280;40050;47.324;18.792;2023-05-23T00:54:28;1000.86;;;18.56;62.80
54144;BME280;40050;47.324;18.792;2023-05-23T00:56:29;1000.85;;;18.51;62.87
54144;BME280;40050;47.324;18.792;2023-05-23T00:58:30;1000.81;;;18.46;62.96
54144;BME280;40050;47.324;18.792;2023-05-23T01:00:31;1000.81;;;18.41;63.18
54144;BME280;40050;47.324;18.792;2023-05-23T01:02:32;1000.83;;;18.40;63.56
54144;BME280;40050;47.324;18.792;2023-05-23T01:04:34;1000.81;;;18.35;63.83
54144;BME280;40050;47.324;18.792;2023-05-23T01:06:35;1000.77;;;18.26;64.11
54144;BME280;40050;47.324;18.792;2023-05-23T01:08:36;1000.74;;;18.21;64.20
54144;BME280;40050;47.324;18.792;2023-05-23T01:10:37;1000.76;;;18.20;64.41
54144;BME280;40050;47.324;18.792;2023-05-23T01:15:05;1000.76;;;18.10;64.93
54144;BME280;40050;47.324;18.792;2023-05-23T01:17:09;1000.75;;;18.10;64.86
54144;BME280;40050;47.324;18.792;2023-05-23T01:19:16;1000.73;;;18.07;65.05
54144;BME280;40050;47.324;18.792;2023-05-23T01:21:25;1000.74;;;18.03;65.09
54144;BME280;40050;47.324;18.792;2023-05-23T01:28:20;1000.68;;;17.99;65.81
54144;BME280;40050;47.324;18.792;2023-05-23T01:30:23;1000.61;;;17.97;65.90
54144;BME280;40050;47.324;18.792;2023-05-23T01:32:25;1000.62;;;18.02;65.93
54144;BME280;40050;47.324;18.792;2023-05-23T01:34:27;1000.58;;;17.99;65.97
54144;BME280;40050;47.324;18.792;2023-05-23T01:36:28;1000.62;;;18.01;65.70
54144;BME280;40050;47.324;18.792;2023-05-23T01:38:32;1000.62;;;17.97;65.51
54144;BME280;40050;47.324;18.792;2023-05-23T01:40:33;1000.59;;;17.97;65.38
54144;BME280;40050;47.324;18.792;2023-05-23T01:42:34;1000.62;;;17.97;65.31
54144;BME280;40050;47.324;18.792;2023-05-23T01:44:35;1000.58;;;17.97;65.31
54144;BME280;40050;47.324;18.792;2023-05-23T01:46:37;1000.33;;;17.84;65.44
54144;BME280;40050;47.324;18.792;2023-05-23T01:48:38;1000.55;;;17.96;65.43
54144;BME280;40050;47.324;18.792;2023-05-23T01:50:41;1000.54;;;17.96;65.54
54144;BME280;40050;47.324;18.792;2023-05-23T01:52:42;1000.48;;;17.94;65.78
54144;BME280;40050;47.324;18.792;2023-05-23T01:54:43;1000.47;;;17.95;65.69
54144;BME280;40050;47.324;18.792;2023-05-23T01:56:44;1000.49;;;17.94;65.20
54144;BME280;40050;47.324;18.792;2023-05-23T01:58:46;1000.49;;;17.91;64.79
54144;BME280;40050;47.324;18.792;2023-05-23T02:00:47;1000.53;;;17.87;64.64
54144;BME280;40050;47.324;18.792;2023-05-23T02:02:48;1000.50;;;17.80;64.74
54144;BME280;40050;47.324;18.792;2023-05-23T02:04:49;1000.49;;;17.79;64.96
54144;BME280;40050;47.324;18.792;2023-05-23T02:06:50;1000.42;;;17.77;64.97
54144;BME280;40050;47.324;18.792;2023-05-23T02:08:51;1000.37;;;17.75;64.82
54144;BME280;40050;47.324;18.792;2023-05-23T02:10:52;1000.35;;;17.72;64.58
54144;BME280;40050;47.324;18.792;2023-05-23T02:12:53;1000.30;;;17.63;64.39
54144;BME280;40050;47.324;18.792;2023-05-23T02:14:54;1000.40;;;17.67;64.29
54144;BME280;40050;47.324;18.792;2023-05-23T02:16:55;1000.42;;;17.66;64.53
54144;BME280;40050;47.324;18.792;2023-05-23T02:18:56;1000.46;;;17.62;64.69
54144;BME280;40050;47.324;18.792;2023-05-23T02:20:57;1000.46;;;17.61;64.91
54144;BME280;40050;47.324;18.792;2023-05-23T02:22:58;1000.42;;;17.56;65.06
54144;BME280;40050;47.324;18.792;2023-05-23T02:24:59;1000.42;;;17.56;65.36
54144;BME280;40050;47.324;18.792;2023-05-23T02:27:00;1000.41;;;17.53;65.50
54144;BME280;40050;47.324;18.792;2023-05-23T02:29:00;1000.42;;;17.53;65.58
54144;BME280;40050;47.324;18.792;2023-05-23T02:31:01;1000.41;;;17.49;65.77
54144;BME280;40050;47.324;18.792;2023-05-23T02:33:05;1000.45;;;17.50;65.82
54144;BME280;40050;47.324;18.792;2023-05-23T02:35:07;1000.45;;;17.47;65.80
54144;BME280;40050;47.324;18.792;2023-05-23T02:37:08;1000.43;;;17.45;65.90
54144;BME280;40050;47.324;18.792;2023-05-23T02:39:08;1000.43;;;17.45;66.02
54144;BME280;40050;47.324;18.792;2023-05-23T02:41:09;1000.42;;;17.46;66.05
54144;BME280;40050;47.324;18.792;2023-05-23T02:43:10;1000.35;;;17.45;66.08
54144;BME280;40050;47.324;18.792;2023-05-23T02:45:11;1000.34;;;17.44;66.11
54144;BME280;40050;47.324;18.792;2023-05-23T02:47:12;1000.33;;;17.43;66.21
54144;BME280;40050;47.324;18.792;2023-05-23T02:49:13;1000.40;;;17.43;66.20
54144;BME280;40050;47.324;18.792;2023-05-23T02:51:14;1000.36;;;17.42;66.16
54144;BME280;40050;47.324;18.792;2023-05-23T02:53:15;1000.31;;;17.40;66.05
54144;BME280;40050;47.324;18.792;2023-05-23T02:55:16;1000.30;;;17.39;65.79
54144;BME280;40050;47.324;18.792;2023-05-23T02:57:17;1000.24;;;17.36;65.45
54144;BME280;40050;47.324;18.792;2023-05-23T02:59:18;1000.27;;;17.36;65.39
54144;BME280;40050;47.324;18.792;2023-05-23T03:01:19;1000.32;;;17.37;65.52
54144;BME280;40050;47.324;18.792;2023-05-23T03:03:20;1000.30;;;17.34;65.68
54144;BME280;40050;47.324;18.792;2023-05-23T03:05:21;1000.39;;;17.34;65.93
54144;BME280;40050;47.324;18.792;2023-05-23T03:07:22;1000.34;;;17.29;66.21
54144;BME280;40050;47.324;18.792;2023-05-23T03:09:23;1000.42;;;17.30;66.34
54144;BME280;40050;47.324;18.792;2023-05-23T03:11:24;1000.35;;;17.22;66.52
54144;BME280;40050;47.324;18.792;2023-05-23T03:13:25;1000.34;;;17.19;66.57
54144;BME280;40050;47.324;18.792;2023-05-23T03:15:26;1000.42;;;17.19;66.80
54144;BME280;40050;47.324;18.792;2023-05-23T03:17:28;1000.36;;;17.16;66.77
54144;BME280;40050;47.324;18.792;2023-05-23T03:19:29;1000.37;;;17.16;66.88
54144;BME280;40050;47.324;18.792;2023-05-23T03:21:31;1000.43;;;17.15;66.88
54144;BME280;40050;47.324;18.792;2023-05-23T03:23:32;1000.34;;;17.12;66.96
54144;BME280;40050;47.324;18.792;2023-05-23T03:25:33;1000.42;;;17.15;66.94
54144;BME280;40050;47.324;18.792;2023-05-23T03:27:34;1000.44;;;17.14;66.67
54144;BME280;40050;47.324;18.792;2023-05-23T03:29:35;1000.42;;;17.14;66.43
54144;BME280;40050;47.324;18.792;2023-05-23T03:31:36;1000.41;;;17.11;66.29
54144;BME280;40050;47.324;18.792;2023-05-23T03:33:37;1000.44;;;17.13;66.24
54144;BME280;40050;47.324;18.792;2023-05-23T03:35:38;1000.39;;;17.13;66.21
54144;BME280;40050;47.324;18.792;2023-05-23T03:37:39;1000.36;;;17.11;66.05
54144;BME280;40050;47.324;18.792;2023-05-23T03:39:40;1000.40;;;17.13;66.01
54144;BME280;40050;47.324;18.792;2023-05-23T03:41:40;1000.39;;;17.13;66.02
54144;BME280;40050;47.324;18.792;2023-05-23T03:43:41;1000.24;;;17.06;66.07
54144;BME280;40050;47.324;18.792;2023-05-23T03:45:42;1000.13;;;16.98;66.16
54144;BME280;40050;47.324;18.792;2023-05-23T03:47:43;1000.33;;;17.13;66.25
54144;BME280;40050;47.324;18.792;2023-05-23T03:49:44;1000.12;;;16.98;66.30
54144;BME280;40050;47.324;18.792;2023-05-23T03:51:45;1000.30;;;17.13;66.55
54144;BME280;40050;47.324;18.792;2023-05-23T03:53:46;1000.40;;;17.15;66.57
54144;BME280;40050;47.324;18.792;2023-05-23T03:55:47;1000.37;;;17.16;66.90
54144;BME280;40050;47.324;18.792;2023-05-23T03:57:48;1000.40;;;17.15;67.00
54144;BME280;40050;47.324;18.792;2023-05-23T03:59:49;1000.38;;;17.14;67.00
54144;BME280;40050;47.324;18.792;2023-05-23T04:01:50;1000.41;;;17.14;66.93
54144;BME280;40050;47.324;18.792;2023-05-23T04:03:51;1000.41;;;17.13;66.90
54144;BME280;40050;47.324;18.792;2023-05-23T04:05:52;1000.40;;;17.11;67.06
54144;BME280;40050;47.324;18.792;2023-05-23T04:07:53;1000.41;;;17.12;67.22
54144;BME280;40050;47.324;18.792;2023-05-23T04:09:54;1000.34;;;17.10;67.52
54144;BME280;40050;47.324;18.792;2023-05-23T04:11:56;1000.32;;;17.14;67.78
54144;BME280;40050;47.324;18.792;2023-05-23T04:13:57;1000.10;;;16.97;68.13
54144;BME280;40050;47.324;18.792;2023-05-23T04:16:01;1000.29;;;17.13;68.47
54144;BME280;40050;47.324;18.792;2023-05-23T04:18:02;1000.33;;;17.17;68.66
54144;BME280;40050;47.324;18.792;2023-05-23T04:20:05;1000.35;;;17.20;68.72
54144;BME280;40050;47.324;18.792;2023-05-23T04:22:06;1000.38;;;17.26;68.88
54144;BME280;40050;47.324;18.792;2023-05-23T04:24:08;1000.37;;;17.30;69.09
54144;BME280;40050;47.324;18.792;2023-05-23T04:26:09;1000.37;;;17.33;69.22
54144;BME280;40050;47.324;18.792;2023-05-23T04:30:39;1000.36;;;17.34;69.76
54144;BME280;40050;47.324;18.792;2023-05-23T04:34:43;1000.24;;;17.31;70.04
54144;BME280;40050;47.324;18.792;2023-05-23T04:36:44;1000.35;;;17.48;70.08
54144;BME280;40050;47.324;18.792;2023-05-23T04:40:52;1000.38;;;17.63;69.99
54144;BME280;40050;47.324;18.792;2023-05-23T04:54:11;1000.48;;;17.94;70.92
54144;BME280;40050;47.324;18.792;2023-05-23T04:56:12;1000.41;;;18.03;71.06
54144;BME280;40050;47.324;18.792;2023-05-23T04:58:13;1000.45;;;18.18;71.03
54144;BME280;40050;47.324;18.792;2023-05-23T05:00:14;1000.49;;;18.35;70.97
54144;BME280;40050;47.324;18.792;2023-05-23T05:02:15;1000.42;;;18.48;70.79
54144;BME280;40050;47.324;18.792;2023-05-23T05:04:19;1000.42;;;18.64;70.93
54144;BME280;40050;47.324;18.792;2023-05-23T05:06:21;1000.42;;;18.77;71.07
54144;BME280;40050;47.324;18.792;2023-05-23T05:08:22;1000.43;;;18.92;71.31
54144;BME280;40050;47.324;18.792;2023-05-23T05:10:23;1000.46;;;19.09;71.59
54144;BME280;40050;47.324;18.792;2023-05-23T05:12:24;1000.46;;;19.24;71.57
54144;BME280;40050;47.324;18.792;2023-05-23T05:14:25;1000.46;;;19.41;70.90
54144;BME280;40050;47.324;18.792;2023-05-23T05:16:26;1000.45;;;19.51;70.20
54144;BME280;40050;47.324;18.792;2023-05-23T05:18:27;1000.42;;;19.65;69.48
54144;BME280;40050;47.324;18.792;2023-05-23T05:20:28;1000.41;;;19.73;69.42
54144;BME280;40050;47.324;18.792;2023-05-23T05:22:29;1000.43;;;19.91;69.21
54144;BME280;40050;47.324;18.792;2023-05-23T05:24:30;1000.36;;;20.04;68.77
54144;BME280;40050;47.324;18.792;2023-05-23T05:26:31;1000.31;;;20.18;68.42
54144;BME280;40050;47.324;18.792;2023-05-23T05:28:32;1000.27;;;20.29;68.70
54144;BME280;40050;47.324;18.792;2023-05-23T05:30:33;1000.27;;;20.45;68.49
54144;BME280;40050;47.324;18.792;2023-05-23T05:32:34;1000.30;;;20.64;67.46
54144;BME280;40050;47.324;18.792;2023-05-23T05:34:35;1000.37;;;20.82;67.28
54144;BME280;40050;47.324;18.792;2023-05-23T05:36:36;1000.30;;;20.96;67.31
54144;BME280;40050;47.324;18.792;2023-05-23T05:38:37;1000.34;;;21.11;66.90
54144;BME280;40050;47.324;18.792;2023-05-23T05:40:38;1000.30;;;21.21;66.98
54144;BME280;40050;47.324;18.792;2023-05-23T05:42:39;1000.29;;;21.30;66.80
54144;BME280;40050;47.324;18.792;2023-05-23T05:44:40;1000.31;;;21.48;66.52
54144;BME280;40050;47.324;18.792;2023-05-23T05:46:50;1000.33;;;21.59;65.91
54144;BME280;40050;47.324;18.792;2023-05-23T05:49:07;1000.33;;;21.71;66.04
54144;BME280;40050;47.324;18.792;2023-05-23T05:51:08;1000.32;;;21.89;65.00
54144;BME280;40050;47.324;18.792;2023-05-23T05:53:09;1000.16;;;22.00;64.47
54144;BME280;40050;47.324;18.792;2023-05-23T05:55:13;1000.38;;;22.25;62.82
54144;BME280;40050;47.324;18.792;2023-05-23T05:57:14;1000.35;;;22.38;63.38
54144;BME280;40050;47.324;18.792;2023-05-23T05:59:15;1000.37;;;22.51;63.15
54144;BME280;40050;47.324;18.792;2023-05-23T06:01:16;1000.40;;;22.67;63.36
54144;BME280;40050;47.324;18.792;2023-05-23T06:03:17;1000.27;;;22.76;62.72
54144;BME280;40050;47.324;18.792;2023-05-23T06:05:18;1000.39;;;23.01;62.36
54144;BME280;40050;47.324;18.792;2023-05-23T06:07:19;1000.41;;;23.16;60.94
54144;BME280;40050;47.324;18.792;2023-05-23T06:09:20;1000.44;;;23.27;60.62
54144;BME280;40050;47.324;18.792;2023-05-23T06:11:21;1000.46;;;23.39;61.34
54144;BME280;40050;47.324;18.792;2023-05-23T06:13:22;1000.44;;;23.55;61.64
54144;BME280;40050;47.324;18.792;2023-05-23T06:15:23;1000.41;;;23.68;60.23
54144;BME280;40050;47.324;18.792;2023-05-23T06:17:24;1000.38;;;23.83;59.83
54144;BME280;40050;47.324;18.792;2023-05-23T06:19:25;1000.31;;;23.99;59.27
54144;BME280;40050;47.324;18.792;2023-05-23T06:23:50;1000.34;;;24.45;56.95
54144;BME280;40050;47.324;18.792;2023-05-23T06:31:10;1000.28;;;24.95;54.70
54144;BME280;40050;47.324;18.792;2023-05-23T06:33:12;1000.26;;;24.95;54.15
54144;BME280;40050;47.324;18.792;2023-05-23T06:37:27;1000.28;;;25.15;53.34
54144;BME280;40050;47.324;18.792;2023-05-23T06:44:20;1000.27;;;25.41;54.07
54144;BME280;40050;47.324;18.792;2023-05-23T06:46:22;1000.29;;;25.54;54.40
54144;BME280;40050;47.324;18.792;2023-05-23T06:48:23;1000.25;;;25.68;53.92
54144;BME280;40050;47.324;18.792;2023-05-23T06:50:29;1000.26;;;25.77;53.72
54144;BME280;40050;47.324;18.792;2023-05-23T06:52:30;1000.32;;;25.88;53.84
54144;BME280;40050;47.324;18.792;2023-05-23T06:54:30;1000.29;;;26.04;53.11
54144;BME280;40050;47.324;18.792;2023-05-23T06:56:31;1000.18;;;26.09;52.97
54144;BME280;40050;47.324;18.792;2023-05-23T06:58:32;1000.21;;;26.24;51.60
54144;BME280;40050;47.324;18.792;2023-05-23T07:00:33;1000.26;;;26.39;51.80
54144;BME280;40050;47.324;18.792;2023-05-23T07:02:34;1000.25;;;26.52;51.85
54144;BME280;40050;47.324;18.792;2023-05-23T07:04:35;1000.24;;;26.69;51.04
54144;BME280;40050;47.324;18.792;2023-05-23T07:06:36;1000.19;;;26.85;49.51
54144;BME280;40050;47.324;18.792;2023-05-23T07:08:37;1000.27;;;26.92;49.76
54144;BME280;40050;47.324;18.792;2023-05-23T07:10:38;1000.16;;;27.01;49.52
54144;BME280;40050;47.324;18.792;2023-05-23T07:12:39;1000.16;;;27.15;48.87
54144;BME280;40050;47.324;18.792;2023-05-23T07:14:40;1000.15;;;27.16;48.72
54144;BME280;40050;47.324;18.792;2023-05-23T07:16:41;1000.16;;;27.27;50.17
54144;BME280;40050;47.324;18.792;2023-05-23T07:18:42;1000.13;;;27.43;50.05
54144;BME280;40050;47.324;18.792;2023-05-23T07:20:43;1000.13;;;27.63;49.40
54144;BME280;40050;47.324;18.792;2023-05-23T07:22:44;1000.05;;;27.67;47.95
54144;BME280;40050;47.324;18.792;2023-05-23T07:24:44;1000.14;;;27.67;47.68
54144;BME280;40050;47.324;18.792;2023-05-23T07:26:45;1000.16;;;27.69;46.63
54144;BME280;40050;47.324;18.792;2023-05-23T07:28:46;1000.14;;;27.65;48.10
54144;BME280;40050;47.324;18.792;2023-05-23T07:30:47;1000.15;;;27.76;47.76
54144;BME280;40050;47.324;18.792;2023-05-23T07:32:48;1000.14;;;27.78;48.16
54144;BME280;40050;47.324;18.792;2023-05-23T07:34:49;1000.10;;;27.88;48.36
54144;BME280;40050;47.324;18.792;2023-05-23T07:36:50;1000.15;;;27.97;47.67
54144;BME280;40050;47.324;18.792;2023-05-23T07:38:51;1000.11;;;28.06;47.22
54144;BME280;40050;47.324;18.792;2023-05-23T07:40:52;1000.14;;;28.14;47.37
54144;BME280;40050;47.324;18.792;2023-05-23T07:42:53;1000.18;;;28.23;46.26
54144;BME280;40050;47.324;18.792;2023-05-23T07:44:54;1000.13;;;28.33;45.24
54144;BME280;40050;47.324;18.792;2023-05-23T07:46:55;1000.19;;;28.40;45.50
54144;BME280;40050;47.324;18.792;2023-05-23T07:48:56;1000.11;;;28.47;44.98
54144;BME280;40050;47.324;18.792;2023-05-23T07:50:56;1000.08;;;28.47;45.30
54144;BME280;40050;47.324;18.792;2023-05-23T07:52:57;1000.11;;;28.58;46.07
54144;BME280;40050;47.324;18.792;2023-05-23T07:54:58;1000.09;;;28.76;45.75
54144;BME280;40050;47.324;18.792;2023-05-23T07:57:00;1000.05;;;28.96;45.42
54144;BME280;40050;47.324;18.792;2023-05-23T07:59:00;1000.05;;;29.12;46.00
54144;BME280;40050;47.324;18.792;2023-05-23T08:01:01;999.95;;;29.27;45.33
54144;BME280;40050;47.324;18.792;2023-05-23T08:03:02;1000.03;;;29.43;45.28
54144;BME280;40050;47.324;18.792;2023-05-23T08:05:03;1000.02;;;29.63;43.80
54144;BME280;40050;47.324;18.792;2023-05-23T08:07:04;999.97;;;29.64;43.42
54144;BME280;40050;47.324;18.792;2023-05-23T08:09:05;1000.06;;;29.61;43.07
54144;BME280;40050;47.324;18.792;2023-05-23T08:11:06;1000.07;;;29.46;42.37
54144;BME280;40050;47.324;18.792;2023-05-23T08:13:10;999.62;;;29.31;41.63
54144;BME280;40050;47.324;18.792;2023-05-23T08:15:11;999.97;;;29.53;42.23
54144;BME280;40050;47.324;18.792;2023-05-23T08:17:12;999.97;;;29.51;42.26
54144;BME280;40050;47.324;18.792;2023-05-23T08:19:13;999.99;;;29.59;42.22
54144;BME280;40050;47.324;18.792;2023-05-23T08:21:14;999.96;;;29.59;43.08
54144;BME280;40050;47.324;18.792;2023-05-23T08:23:15;999.97;;;29.79;42.75
54144;BME280;40050;47.324;18.792;2023-05-23T08:25:15;999.90;;;29.94;42.79
54144;BME280;40050;47.324;18.792;2023-05-23T08:27:16;999.98;;;29.92;42.72
54144;BME280;40050;47.324;18.792;2023-05-23T08:29:17;999.96;;;30.02;43.16
54144;BME280;40050;47.324;18.792;2023-05-23T08:31:18;999.94;;;30.10;42.32
54144;BME280;40050;47.324;18.792;2023-05-23T08:33:19;999.93;;;30.20;42.41
54144;BME280;40050;47.324;18.792;2023-05-23T08:35:20;999.81;;;30.16;41.03
54144;BME280;40050;47.324;18.792;2023-05-23T08:37:21;999.90;;;30.28;40.93
54144;BME280;40050;47.324;18.792;2023-05-23T08:39:22;999.74;;;30.22;41.15
54144;BME280;40050;47.324;18.792;2023-05-23T08:41:23;999.86;;;30.42;40.80
54144;BME280;40050;47.324;18.792;2023-05-23T08:43:24;999.91;;;30.55;40.76
54144;BME280;40050;47.324;18.792;2023-05-23T08:45:25;999.92;;;30.61;39.69
54144;BME280;40050;47.324;18.792;2023-05-23T08:47:26;999.96;;;30.65;39.45
54144;BME280;40050;47.324;18.792;2023-05-23T08:49:28;999.79;;;30.53;39.51
54144;BME280;40050;47.324;18.792;2023-05-23T08:51:29;999.91;;;30.42;39.97
54144;BME280;40050;47.324;18.792;2023-05-23T08:53:31;999.94;;;30.39;40.37
54144;BME280;40050;47.324;18.792;2023-05-23T08:55:32;999.80;;;30.38;40.29
54144;BME280;40050;47.324;18.792;2023-05-23T08:57:34;999.89;;;30.50;40.46
54144;BME280;40050;47.324;18.792;2023-05-23T08:59:35;999.91;;;30.67;40.43
54144;BME280;40050;47.324;18.792;2023-05-23T09:01:38;999.87;;;30.65;40.66
54144;BME280;40050;47.324;18.792;2023-05-23T09:03:39;999.93;;;30.78;40.39
54144;BME280;40050;47.324;18.792;2023-05-23T09:05:40;999.91;;;30.72;39.55
54144;BME280;40050;47.324;18.792;2023-05-23T09:07:42;999.74;;;30.55;39.46
54144;BME280;40050;47.324;18.792;2023-05-23T09:09:43;999.67;;;30.55;40.32
54144;BME280;40050;47.324;18.792;2023-05-23T09:11:44;999.91;;;30.78;40.39
54144;BME280;40050;47.324;18.792;2023-05-23T09:13:46;999.86;;;30.88;39.82
54144;BME280;40050;47.324;18.792;2023-05-23T09:15:57;999.89;;;31.00;40.75
54144;BME280;40050;47.324;18.792;2023-05-23T09:18:00;999.90;;;31.01;39.55
54144;BME280;40050;47.324;18.792;2023-05-23T09:20:02;999.92;;;30.92;39.26
54144;BME280;40050;47.324;18.792;2023-05-23T09:22:03;999.87;;;30.96;39.42
54144;BME280;40050;47.324;18.792;2023-05-23T09:24:04;999.90;;;31.07;39.79
54144;BME280;40050;47.324;18.792;2023-05-23T09:26:06;999.96;;;31.10;40.02
54144;BME280;40050;47.324;18.792;2023-05-23T09:28:08;999.91;;;31.06;39.12
54144;BME280;40050;47.324;18.792;2023-05-23T09:30:09;999.97;;;31.01;39.42
54144;BME280;40050;47.324;18.792;2023-05-23T09:32:11;999.82;;;30.97;38.55
54144;BME280;40050;47.324;18.792;2023-05-23T09:34:12;999.90;;;31.07;38.87
54144;BME280;40050;47.324;18.792;2023-05-23T09:36:13;999.89;;;31.12;38.62
54144;BME280;40050;47.324;18.792;2023-05-23T09:38:14;999.87;;;30.80;37.71
54144;BME280;40050;47.324;18.792;2023-05-23T09:40:15;999.82;;;30.53;38.00
54144;BME280;40050;47.324;18.792;2023-05-23T09:42:19;999.88;;;30.47;38.30
54144;BME280;40050;47.324;18.792;2023-05-23T09:44:21;999.61;;;30.37;38.16
54144;BME280;40050;47.324;18.792;2023-05-23T09:46:26;999.84;;;30.28;39.31
54144;BME280;40050;47.324;18.792;2023-05-23T09:48:27;999.64;;;30.25;38.65
54144;BME280;40050;47.324;18.792;2023-05-23T09:50:29;999.76;;;30.42;38.49
54144;BME280;40050;47.324;18.792;2023-05-23T09:52:36;999.73;;;30.40;39.33
54144;BME280;40050;47.324;18.792;2023-05-23T09:54:38;999.75;;;30.57;39.63
54144;BME280;40050;47.324;18.792;2023-05-23T09:56:39;999.80;;;30.69;38.21
54144;BME280;40050;47.324;18.792;2023-05-23T09:58:43;999.78;;;30.83;37.85
54144;BME280;40050;47.324;18.792;2023-05-23T10:00:48;999.72;;;30.91;36.54
54144;BME280;40050;47.324;18.792;2023-05-23T10:05:06;999.77;;;31.03;36.74
54144;BME280;40050;47.324;18.792;2023-05-23T10:07:12;999.79;;;31.13;36.08
54144;BME280;40050;47.324;18.792;2023-05-23T10:09:14;999.81;;;31.16;36.27
54144;BME280;40050;47.324;18.792;2023-05-23T10:11:30;999.77;;;31.15;36.37
54144;BME280;40050;47.324;18.792;2023-05-23T10:13:29;999.72;;;31.18;36.00
54144;BME280;40050;47.324;18.792;2023-05-23T10:15:36;999.66;;;31.16;35.99
54144;BME280;40050;47.324;18.792;2023-05-23T10:17:40;999.68;;;31.10;35.85
54144;BME280;40050;47.324;18.792;2023-05-23T10:19:47;999.53;;;31.04;36.74
54144;BME280;40050;47.324;18.792;2023-05-23T10:21:55;999.65;;;31.17;37.28
54144;BME280;40050;47.324;18.792;2023-05-23T10:23:57;999.62;;;31.26;35.20
54144;BME280;40050;47.324;18.792;2023-05-23T10:25:59;999.55;;;31.23;35.65
54144;BME280;40050;47.324;18.792;2023-05-23T10:28:00;999.57;;;31.29;36.57
54144;BME280;40050;47.324;18.792;2023-05-23T10:30:01;999.55;;;31.39;35.24
54144;BME280;40050;47.324;18.792;2023-05-23T10:32:03;999.60;;;31.41;35.58
54144;BME280;40050;47.324;18.792;2023-05-23T10:34:07;999.55;;;31.46;35.20
54144;BME280;40050;47.324;18.792;2023-05-23T10:36:13;999.52;;;31.36;34.36
54144;BME280;40050;47.324;18.792;2023-05-23T10:41:01;999.45;;;31.42;35.10
54144;BME280;40050;47.324;18.792;2023-05-23T10:43:17;999.48;;;31.41;34.46
54144;BME280;40050;47.324;18.792;2023-05-23T10:45:20;999.46;;;31.36;34.25
54144;BME280;40050;47.324;18.792;2023-05-23T10:47:25;999.43;;;31.32;34.66
54144;BME280;40050;47.324;18.792;2023-05-23T10:49:42;999.44;;;31.31;35.24
54144;BME280;40050;47.324;18.792;2023-05-23T10:51:45;999.41;;;31.17;35.15
54144;BME280;40050;47.324;18.792;2023-05-23T10:53:55;999.42;;;31.26;34.39
54144;BME280;40050;47.324;18.792;2023-05-23T10:55:56;999.39;;;31.23;34.52
54144;BME280;40050;47.324;18.792;2023-05-23T10:58:17;999.44;;;31.21;35.29
54144;BME280;40050;47.324;18.792;2023-05-23T11:00:18;999.35;;;31.16;33.73
54144;BME280;40050;47.324;18.792;2023-05-23T11:02:26;999.25;;;31.17;34.76
54144;BME280;40050;47.324;18.792;2023-05-23T11:04:28;999.29;;;31.26;32.58
54144;BME280;40050;47.324;18.792;2023-05-23T11:06:30;999.28;;;31.29;33.49
54144;BME280;40050;47.324;18.792;2023-05-23T11:08:37;999.33;;;31.08;33.31
54144;BME280;40050;47.324;18.792;2023-05-23T11:12:52;999.23;;;31.08;34.74
54144;BME280;40050;47.324;18.792;2023-05-23T11:15:20;999.19;;;31.05;34.06
54144;BME280;40050;47.324;18.792;2023-05-23T11:17:33;999.21;;;31.00;34.37
54144;BME280;40050;47.324;18.792;2023-05-23T11:19:34;999.16;;;31.09;33.80
54144;BME280;40050;47.324;18.792;2023-05-23T11:21:35;999.09;;;30.98;33.86
54144;BME280;40050;47.324;18.792;2023-05-23T11:23:39;999.07;;;30.91;33.72
54144;BME280;40050;47.324;18.792;2023-05-23T11:25:41;999.11;;;30.90;33.72
54144;BME280;40050;47.324;18.792;2023-05-23T11:27:44;999.08;;;30.92;34.04
54144;BME280;40050;47.324;18.792;2023-05-23T11:29:55;999.11;;;30.87;34.18
54144;BME280;40050;47.324;18.792;2023-05-23T11:31:56;999.09;;;30.85;34.35
54144;BME280;40050;47.324;18.792;2023-05-23T11:33:57;999.01;;;30.85;35.03
54144;BME280;40050;47.324;18.792;2023-05-23T11:35:58;999.01;;;30.56;34.04